createdAt,value
2023-04-03T00:04:58.158Z,5.53
2023-04-03T00:10:01.934Z,5.47
2023-04-03T00:15:06.058Z,5.43
2023-04-03T00:20:09.905Z,5.38
2023-04-03T00:25:13.759Z,5.32
2023-04-03T00:30:26.217Z,5.25
2023-04-03T00:35:31.730Z,5.18
2023-04-03T00:40:42.432Z,5.17
2023-04-03T00:45:49.304Z,5.18
2023-04-03T00:50:53.600Z,5.13
2023-04-03T00:55:57.614Z,5.02
2023-04-03T01:01:07.007Z,4.91
2023-04-03T01:06:17.512Z,4.80
2023-04-03T01:11:22.523Z,4.72
2023-04-03T01:16:26.530Z,4.64
2023-04-03T01:22:04.136Z,4.60
2023-04-03T01:27:10.663Z,4.60
2023-04-03T01:32:14.009Z,4.61
2023-04-03T01:37:19.814Z,4.68
2023-04-03T01:42:23.205Z,4.74
2023-04-03T01:47:26.632Z,4.73
2023-04-03T01:52:30.261Z,4.72
2023-04-03T01:57:34.066Z,4.70
2023-04-03T02:02:37.534Z,4.65
2023-04-03T02:07:40.763Z,4.64
2023-04-03T02:12:45.046Z,4.62
2023-04-03T02:17:48.334Z,4.61
2023-04-03T02:22:51.589Z,4.56
2023-04-03T02:27:54.913Z,4.54
2023-04-03T02:32:58.281Z,4.52
2023-04-03T02:38:02.231Z,4.60
2023-04-03T02:43:05.568Z,4.64
2023-04-03T02:48:12.077Z,4.59
2023-04-03T02:53:16.449Z,4.49
2023-04-03T02:58:20.320Z,4.43
2023-04-03T03:03:24.162Z,4.37
2023-04-03T03:08:27.445Z,4.33
2023-04-03T03:13:32.124Z,4.41
2023-04-03T03:18:35.868Z,4.45
2023-04-03T03:23:39.692Z,4.45
2023-04-03T03:28:43.079Z,4.47
2023-04-03T03:33:48.257Z,4.47
2023-04-03T03:38:51.572Z,4.45
2023-04-03T03:43:54.967Z,4.42
2023-04-03T03:48:59.185Z,4.33
2023-04-03T03:54:02.847Z,4.33
2023-04-03T03:59:06.730Z,4.29
2023-04-03T04:04:10.137Z,4.25
2023-04-03T04:09:14.350Z,4.29
2023-04-03T04:14:17.866Z,4.20
2023-04-03T04:19:37.034Z,4.05
2023-04-03T04:24:40.798Z,4.00
2023-04-03T04:29:44.772Z,4.09
2023-04-03T04:34:48.141Z,4.21
2023-04-03T04:39:51.995Z,4.21
2023-04-03T04:44:55.564Z,4.16
2023-04-03T04:49:59.034Z,4.09
2023-04-03T04:55:03.214Z,4.01
2023-04-03T05:00:07.284Z,3.88
2023-04-03T05:05:10.871Z,3.83
2023-04-03T05:10:14.761Z,3.84
2023-04-03T05:15:19.026Z,3.84
2023-04-03T05:20:23.045Z,3.87
2023-04-03T05:25:27.291Z,3.96
2023-04-03T05:30:31.614Z,4.07
2023-04-03T05:35:40.552Z,4.02
2023-04-03T05:40:45.398Z,4.01
2023-04-03T05:45:49.164Z,4.07
2023-04-03T05:50:55.169Z,4.09
2023-04-03T05:56:02.634Z,4.06
2023-04-03T06:01:07.989Z,4.03
2023-04-03T06:06:15.518Z,4.02
2023-04-03T06:11:18.999Z,3.92
2023-04-03T06:16:22.422Z,3.87
2023-04-03T06:21:25.898Z,3.83
2023-04-03T06:26:29.723Z,3.82
2023-04-03T06:31:33.143Z,3.85
2023-04-03T06:36:36.776Z,3.93
2023-04-03T06:41:40.084Z,3.97
2023-04-03T06:46:46.387Z,3.98
2023-04-03T06:51:49.780Z,4.02
2023-04-03T06:56:53.103Z,4.03
2023-04-03T07:01:56.810Z,4.05
2023-04-03T07:07:00.241Z,4.05
2023-04-03T07:12:03.805Z,4.11
2023-04-03T07:17:07.412Z,4.18
2023-04-03T07:22:12.263Z,4.21
2023-04-03T07:27:15.521Z,4.24
2023-04-03T07:32:18.955Z,4.37
2023-04-03T07:37:22.337Z,4.53
2023-04-03T07:42:28.871Z,4.61
2023-04-03T07:47:32.535Z,4.71
2023-04-03T07:52:35.705Z,4.72
2023-04-03T07:57:39.467Z,4.74
2023-04-03T08:02:42.848Z,4.82
2023-04-03T08:07:46.811Z,4.92
2023-04-03T08:12:50.527Z,5.00
2023-04-03T08:17:54.537Z,5.01
2023-04-03T08:22:57.761Z,5.05
2023-04-03T08:28:00.988Z,5.08
2023-04-03T08:33:05.362Z,5.10
2023-04-03T08:38:09.906Z,5.09
2023-04-03T08:43:35.866Z,5.08
2023-04-03T08:48:45.027Z,5.06
2023-04-03T08:54:01.996Z,5.13
2023-04-03T08:59:12.201Z,5.23
2023-04-03T09:04:20.691Z,5.22
2023-04-03T09:09:42.783Z,5.10
2023-04-03T09:15:04.424Z,4.98
2023-04-03T09:20:31.228Z,4.97
2023-04-03T09:25:38.511Z,4.95
2023-04-03T09:30:42.603Z,4.91
2023-04-03T09:35:48.938Z,4.90
2023-04-03T09:41:07.493Z,4.86
2023-04-03T09:46:24.111Z,4.84
2023-04-03T09:51:31.010Z,4.82
2023-04-03T09:56:35.971Z,4.71
2023-04-03T10:01:42.923Z,4.70
2023-04-03T10:06:48.089Z,4.79
2023-04-03T10:12:21.039Z,4.92
2023-04-03T10:17:25.046Z,5.00
2023-04-03T10:22:56.720Z,5.02
2023-04-03T10:28:02.287Z,4.95
2023-04-03T10:33:20.257Z,4.91
2023-04-03T10:38:31.675Z,5.00
2023-04-03T10:43:51.759Z,5.08
2023-04-03T10:49:06.726Z,5.16
2023-04-03T10:54:16.665Z,5.18
2023-04-03T10:59:48.737Z,5.19
2023-04-03T11:04:58.494Z,5.19
2023-04-03T11:10:17.935Z,5.25
2023-04-03T11:15:24.138Z,5.44
2023-04-03T11:20:34.505Z,5.80
2023-04-03T11:25:40.105Z,6.06
2023-04-03T11:31:27.511Z,6.08
2023-04-03T11:36:34.534Z,6.20
2023-04-03T11:41:38.988Z,6.32
2023-04-03T11:46:51.016Z,6.49
2023-04-03T11:52:14.963Z,6.57
2023-04-03T11:58:23.023Z,6.65
2023-04-03T12:03:51.092Z,6.70
2023-04-03T12:09:08.009Z,6.80
2023-04-03T12:14:17.875Z,7.14
2023-04-03T12:19:49.528Z,7.56
2023-04-03T12:25:41.279Z,7.70
2023-04-03T12:30:53.160Z,7.69
2023-04-03T12:36:44.176Z,7.70
2023-04-03T12:44:04.270Z,7.90
2023-04-03T12:49:50.793Z,7.93
2023-04-03T12:54:59.589Z,7.72
2023-04-03T13:00:37.156Z,7.54
2023-04-03T13:06:20.138Z,7.43
2023-04-03T13:11:26.739Z,7.30
2023-04-03T13:16:34.879Z,7.39
2023-04-03T13:21:38.988Z,7.44
2023-04-03T13:27:02.030Z,7.40
2023-04-03T13:32:46.363Z,7.40
2023-04-03T13:38:01.888Z,7.39
2023-04-03T13:43:21.224Z,7.41
2023-04-03T13:48:25.975Z,7.43
2023-04-03T13:53:31.998Z,7.47
2023-04-03T13:58:36.921Z,7.44
2023-04-03T14:03:54.413Z,7.27
2023-04-03T14:08:57.651Z,7.20
2023-04-03T14:14:06.608Z,7.20
2023-04-03T14:19:20.106Z,7.28
2023-04-03T14:24:23.829Z,7.27
2023-04-03T14:29:27.007Z,7.25
2023-04-03T14:34:30.195Z,7.19
2023-04-03T14:39:33.648Z,7.20
2023-04-03T14:44:36.992Z,7.20
2023-04-03T14:49:40.676Z,7.25
2023-04-03T14:54:43.906Z,7.28
2023-04-03T14:59:47.235Z,7.27
2023-04-03T15:04:52.180Z,7.29
2023-04-03T15:09:59.467Z,7.27
2023-04-03T15:15:03.907Z,7.27
2023-04-03T15:20:18.611Z,7.17
2023-04-03T15:25:21.794Z,7.09
2023-04-03T15:30:25.456Z,7.07
2023-04-03T15:35:28.769Z,7.07
2023-04-03T15:40:32.114Z,7.00
2023-04-03T15:45:38.042Z,7.00
2023-04-03T15:50:42.686Z,6.96
2023-04-03T15:55:45.966Z,6.97
2023-04-03T16:00:49.350Z,7.01
2023-04-03T16:05:52.814Z,7.02
2023-04-03T16:10:56.088Z,6.96
2023-04-03T16:15:59.551Z,7.00
2023-04-03T16:21:03.307Z,7.02
2023-04-03T16:26:06.655Z,6.99
2023-04-03T16:31:10.879Z,6.82
2023-04-03T16:36:14.106Z,6.65
2023-04-03T16:42:56.797Z,6.54
2023-04-03T16:48:00.305Z,6.45
2023-04-03T16:53:04.174Z,6.35
2023-04-03T16:58:07.584Z,6.26
2023-04-03T17:03:11.292Z,6.18
2023-04-03T17:08:15.099Z,6.13
2023-04-03T17:13:18.359Z,6.03
2023-04-03T17:18:21.907Z,5.92
2023-04-03T17:23:29.568Z,5.84
2023-04-03T17:28:32.884Z,5.76
2023-04-03T17:33:38.817Z,5.66
2023-04-03T17:38:41.867Z,5.58
2023-04-03T17:43:44.917Z,5.48
2023-04-03T17:48:48.012Z,5.41
2023-04-03T17:53:51.300Z,5.33
2023-04-03T18:05:18.003Z,5.39
2023-04-03T18:30:21.945Z,5.04
2023-04-03T18:41:44.525Z,5.18
2023-04-03T19:44:03.285Z,4.70
2023-04-03T19:51:22.535Z,4.69
2023-04-03T20:03:36.146Z,4.90
2023-04-03T20:08:40.381Z,4.89
2023-04-03T20:13:43.868Z,4.84
2023-04-03T20:19:14.686Z,4.80
2023-04-03T20:50:48.384Z,4.76
2023-04-03T21:15:52.692Z,4.72
2023-04-03T21:43:26.607Z,4.70
2023-04-03T22:07:49.639Z,4.68
2023-04-03T22:12:53.006Z,4.65
2023-04-03T22:31:35.441Z,4.64
2023-04-03T23:43:32.562Z,4.19
2023-04-03T23:48:35.665Z,4.13
